CheckWX is a tool to help pilots better visualize weather data.  It is not intended as a substitute for an official pre-flight weather briefing.

21:24:09 UTC

KSAN TAF
San Diego International Airport
San Diego, California, USA
KSAN 222105Z 2221/2324 30008KT P6SM FEW010 FM230000 VRB04KT P6SM SKC FM232000 27008KT P6SM SKC

Oct-22@
21:00 UTC

Oct-22 @ 21:00 UTC

Oct-23@
00:00 UTC

Oct-23 @ 00:00 UTC

KSAN 222105Z 2221/2324 30008KT P6SM FEW010
Wind
  • 300° at 8 KTS
Cloud Levels
  • Few at 1,000' AGL

Oct-23@
00:00 UTC

Oct-23 @ 00:00 UTC

Oct-23@
20:00 UTC

Oct-23 @ 20:00 UTC

FM230000 VRB04KT P6SM SKC

From

From Standard forecast or significant change

Wind
  • Variable at 4 KTS
Cloud Levels
  • Clear skies

Oct-23@
20:00 UTC

Oct-23 @ 20:00 UTC

Oct-24@
00:00 UTC

Oct-24 @ 00:00 UTC

FM232000 27008KT P6SM SKC

From

From Standard forecast or significant change

Wind
  • 270° at 8 KTS
Cloud Levels
  • Clear skies